Silver Cloud — C6MQ5 — position and weather

sailwx.info

Track history (hours):
 
Tides and Currents Weather Stations Pressure Air Temp Water Temp Dewpoint Dewpoint Depression Visibility Wind Speed Wind Dir Waves Ship Positions

Silver Cloud

Operator: V Ships Leisure SAM

Last reported at 2014-Sep-16 16:32 UTC. Time now 2014-Sep-16 17:36 UTC.
Position N 37°30' W 000°56'.

Length 155 m; draft 5.7 m.

Type: Passenger vessel. MMSI: 309027000.

Date/timePositionNaut miles runAvg speedWind from/ knotsBaromVisibWave heightAir tempDewpointWater temp
2014-Sep-16 16:32N 37°30' W 000°56'52 3.7
2014-Sep-16 02:32N 36°52' W 001°41'182 6.7
2014-Sep-14 23:33N 36°00' W 005°17'129 4.9
2014-Sep-13 21:30N 36°50' W 007°44'9 9.3
2014-Sep-13 20:30N 36°52' W 007°56'9 9.3
2014-Sep-13 19:33N 36°56' W 008°06'9 9.3
2014-Sep-13 18:34N 36°59' W 008°16'1010.0
2014-Sep-13 17:33N 37°03' W 008°28'6 5.0
2014-Sep-13 16:27N 37°08' W 008°32'0 0.0
2014-Sep-13 15:27N 37°08' W 008°32'0 0.0
2014-Sep-13 14:27N 37°08' W 008°32'0 0.0
2014-Sep-13 13:27N 37°08' W 008°32'0 0.0
2014-Sep-13 12:27N 37°08' W 008°32'0 0.0
2014-Sep-13 11:30N 37°08' W 008°32'0 0.0
2014-Sep-13 10:30N 37°08' W 008°32'0 0.0
2014-Sep-13 09:30N 37°08' W 008°32'0 0.0
2014-Sep-13 08:30N 37°08' W 008°32'0 0.0
2014-Sep-13 07:33N 37°08' W 008°32'0 0.0
2014-Sep-13 06:33N 37°08' W 008°32'7 6.6
2014-Sep-13 05:33N 37°02' W 008°36'1212.3
2014-Sep-13 04:33N 36°55' W 008°48'19 8.9
2014-Sep-13 02:25N 36°57' W 009°12'2311.6
2014-Sep-13 00:26N 37°20' W 009°15'1011.6
2014-Sep-12 23:33N 37°30' W 009°16'1211.5
2014-Sep-12 22:33N 37°41' W 009°17'1111.2
2014-Sep-12 21:33N 37°53' W 009°18'1211.7
2014-Sep-12 20:33N 38°04' W 009°19'1211.6
2014-Sep-12 19:33N 38°16' W 009°21'1212.0
2014-Sep-12 18:32N 38°28' W 009°22'1111.0
2014-Sep-12 17:33N 38°39' W 009°20'9 9.0
2014-Sep-12 16:34N 38°42' W 009°09'0 0.1
2014-Sep-12 15:32N 38°42' W 009°09'0 0.0
2014-Sep-12 14:32N 38°42' W 009°09'0 0.0
2014-Sep-12 13:32N 38°42' W 009°09'0 0.0
2014-Sep-12 12:32N 38°42' W 009°09'0 0.0
2014-Sep-12 11:32N 38°42' W 009°09'0 0.0
2014-Sep-12 10:32N 38°42' W 009°09'0 0.0
2014-Sep-12 09:32N 38°42' W 009°09'0 0.0
2014-Sep-12 08:32N 38°42' W 009°09'0 0.0
2014-Sep-12 07:29N 38°42' W 009°09'0 0.0
2014-Sep-12 06:32N 38°42' W 009°09'0 0.0
2014-Sep-12 05:33N 38°42' W 009°09'4 4.0
2014-Sep-12 04:34N 38°41' W 009°14'1212.0
2014-Sep-12 03:33N 38°36' W 009°28'  
2014-Sep-09 19:15N 43°47' W 006°15'188 4.2
2014-Sep-07 22:19N 43°27' W 001°57'6 8.2
2014-Sep-07 21:33N 43°26' W 001°49'6 6.4
2014-Sep-07 20:33N 43°24' W 001°40'0 0.0
2014-Sep-07 19:31N 43°24' W 001°40'0 0.0
2014-Sep-07 18:31N 43°24' W 001°40'0 0.1
2014-Sep-07 17:31N 43°24' W 001°40'0 0.0
2014-Sep-07 16:31N 43°24' W 001°40'0 0.1
2014-Sep-07 15:31N 43°24' W 001°41'0 0.0
2014-Sep-07 14:31N 43°24' W 001°41'0 0.0
2014-Sep-07 13:31N 43°24' W 001°41'0 0.0
2014-Sep-07 12:31N 43°24' W 001°41'0 0.0
2014-Sep-07 11:31N 43°24' W 001°41'0 0.0
2014-Sep-07 10:31N 43°24' W 001°41'0 0.0
2014-Sep-07 09:31N 43°24' W 001°41'0 0.0
2014-Sep-07 08:31N 43°24' W 001°41'0 0.0
2014-Sep-07 07:31N 43°24' W 001°41'0 0.0
2014-Sep-07 06:31N 43°24' W 001°41'0 0.2
2014-Sep-07 05:33N 43°24' W 001°41'9 8.9
2014-Sep-07 04:33N 43°33' W 001°40'1413.6
2014-Sep-07 03:33N 43°47' W 001°40'1413.8
2014-Sep-07 02:33N 44°01' W 001°38'1413.9
2014-Sep-07 01:33N 44°15' W 001°37'1413.9
2014-Sep-07 00:33N 44°29' W 001°36'1413.5
2014-Sep-06 23:34N 44°42' W 001°35'1313.4
2014-Sep-06 22:33N 44°55' W 001°34'1413.5
2014-Sep-06 21:33N 45°09' W 001°33'1313.2
2014-Sep-06 20:33N 45°22' W 001°32'  
Track history (hours):
 
Tides and Currents Weather Stations Pressure Air Temp Water Temp Dewpoint Dewpoint Depression Visibility Wind Speed Wind Dir Waves Ship Positions

Silver Cloud

Operator: V Ships Leisure SAM

Last reported at 2014-Sep-16 16:32 UTC. Time now 2014-Sep-16 17:36 UTC.
Position N 37°30' W 000°56'.

Length 155 m; draft 5.7 m.

Type: Passenger vessel. MMSI: 309027000.

Date/timePositionNaut miles runAvg speedWind from/ knotsBaromVisibWave heightAir tempDewpointWater temp
2014-Sep-16 16:32N 37°30' W 000°56'52 3.7
2014-Sep-16 02:32N 36°52' W 001°41'182 6.7
2014-Sep-14 23:33N 36°00' W 005°17'129 4.9
2014-Sep-13 21:30N 36°50' W 007°44'9 9.3
2014-Sep-13 20:30N 36°52' W 007°56'9 9.3
2014-Sep-13 19:33N 36°56' W 008°06'9 9.3
2014-Sep-13 18:34N 36°59' W 008°16'1010.0
2014-Sep-13 17:33N 37°03' W 008°28'6 5.0
2014-Sep-13 16:27N 37°08' W 008°32'0 0.0
2014-Sep-13 15:27N 37°08' W 008°32'0 0.0
2014-Sep-13 14:27N 37°08' W 008°32'0 0.0
2014-Sep-13 13:27N 37°08' W 008°32'0 0.0
2014-Sep-13 12:27N 37°08' W 008°32'0 0.0
2014-Sep-13 11:30N 37°08' W 008°32'0 0.0
2014-Sep-13 10:30N 37°08' W 008°32'0 0.0
2014-Sep-13 09:30N 37°08' W 008°32'0 0.0
2014-Sep-13 08:30N 37°08' W 008°32'0 0.0
2014-Sep-13 07:33N 37°08' W 008°32'0 0.0
2014-Sep-13 06:33N 37°08' W 008°32'7 6.6
2014-Sep-13 05:33N 37°02' W 008°36'1212.3
2014-Sep-13 04:33N 36°55' W 008°48'19 8.9
2014-Sep-13 02:25N 36°57' W 009°12'2311.6
2014-Sep-13 00:26N 37°20' W 009°15'1011.6
2014-Sep-12 23:33N 37°30' W 009°16'1211.5
2014-Sep-12 22:33N 37°41' W 009°17'1111.2
2014-Sep-12 21:33N 37°53' W 009°18'1211.7
2014-Sep-12 20:33N 38°04' W 009°19'1211.6
2014-Sep-12 19:33N 38°16' W 009°21'1212.0
2014-Sep-12 18:32N 38°28' W 009°22'1111.0
2014-Sep-12 17:33N 38°39' W 009°20'9 9.0
2014-Sep-12 16:34N 38°42' W 009°09'0 0.1
2014-Sep-12 15:32N 38°42' W 009°09'0 0.0
2014-Sep-12 14:32N 38°42' W 009°09'0 0.0
2014-Sep-12 13:32N 38°42' W 009°09'0 0.0
2014-Sep-12 12:32N 38°42' W 009°09'0 0.0
2014-Sep-12 11:32N 38°42' W 009°09'0 0.0
2014-Sep-12 10:32N 38°42' W 009°09'0 0.0
2014-Sep-12 09:32N 38°42' W 009°09'0 0.0
2014-Sep-12 08:32N 38°42' W 009°09'0 0.0
2014-Sep-12 07:29N 38°42' W 009°09'0 0.0
2014-Sep-12 06:32N 38°42' W 009°09'0 0.0
2014-Sep-12 05:33N 38°42' W 009°09'4 4.0
2014-Sep-12 04:34N 38°41' W 009°14'1212.0
2014-Sep-12 03:33N 38°36' W 009°28'  
2014-Sep-09 19:15N 43°47' W 006°15'188 4.2
2014-Sep-07 22:19N 43°27' W 001°57'6 8.2
2014-Sep-07 21:33N 43°26' W 001°49'6 6.4
2014-Sep-07 20:33N 43°24' W 001°40'0 0.0
2014-Sep-07 19:31N 43°24' W 001°40'0 0.0
2014-Sep-07 18:31N 43°24' W 001°40'0 0.1
2014-Sep-07 17:31N 43°24' W 001°40'0 0.0
2014-Sep-07 16:31N 43°24' W 001°40'0 0.1
2014-Sep-07 15:31N 43°24' W 001°41'0 0.0
2014-Sep-07 14:31N 43°24' W 001°41'0 0.0
2014-Sep-07 13:31N 43°24' W 001°41'0 0.0
2014-Sep-07 12:31N 43°24' W 001°41'0 0.0
2014-Sep-07 11:31N 43°24' W 001°41'0 0.0
2014-Sep-07 10:31N 43°24' W 001°41'0 0.0
2014-Sep-07 09:31N 43°24' W 001°41'0 0.0
2014-Sep-07 08:31N 43°24' W 001°41'0 0.0
2014-Sep-07 07:31N 43°24' W 001°41'0 0.0
2014-Sep-07 06:31N 43°24' W 001°41'0 0.2
2014-Sep-07 05:33N 43°24' W 001°41'9 8.9
2014-Sep-07 04:33N 43°33' W 001°40'1413.6
2014-Sep-07 03:33N 43°47' W 001°40'1413.8
2014-Sep-07 02:33N 44°01' W 001°38'1413.9
2014-Sep-07 01:33N 44°15' W 001°37'1413.9
2014-Sep-07 00:33N 44°29' W 001°36'1413.5
2014-Sep-06 23:34N 44°42' W 001°35'1313.4
2014-Sep-06 22:33N 44°55' W 001°34'1413.5
2014-Sep-06 21:33N 45°09' W 001°33'1313.2
2014-Sep-06 20:33N 45°22' W 001°32'  

Dump ship's entire track history